Time;durP1;ratioP1;P1;durP2;ratioP2;P2;SDS_P1;SDS_P2;PMS_P1;PMS_P2;Temp;Humidity;BMP_temperature;BMP_pressure;BME280_temperature;BME280_humidity;BME280_pressure;Samples;Min_cycle;Max_cycle;Signal;HPM_P1;HPM_P2
2023/06/16 00:00:37;;;;;;;10.90;8.90;;;;;;;16.75;100.00;100448.40;106044;1251;61086;-87
2023/06/16 00:03:05;;;;;;;16.30;8.40;;;;;;;16.74;100.00;100447.23;106049;1251;60439;-88
2023/06/16 00:05:34;;;;;;;16.70;9.30;;;;;;;16.74;100.00;100441.64;106093;1252;74271;-82
2023/06/16 00:08:02;;;;;;;11.40;8.00;;;;;;;16.73;100.00;100440.15;106098;1252;63268;-83
2023/06/16 00:10:30;;;;;;;14.10;7.60;;;;;;;16.70;100.00;100433.84;106224;1254;72685;-84
2023/06/16 00:12:57;;;;;;;10.30;7.70;;;;;;;16.67;100.00;100435.77;106143;1253;61930;-84
2023/06/16 00:15:24;;;;;;;10.40;8.30;;;;;;;16.64;100.00;100431.43;106099;1254;60450;-84
2023/06/16 00:17:51;;;;;;;8.80;7.70;;;;;;;16.62;100.00;100434.63;106059;1257;74327;-84
2023/06/16 00:20:21;;;;;;;13.00;8.10;;;;;;;16.59;100.00;100439.02;106069;1251;63966;-86
2023/06/16 00:22:48;;;;;;;11.50;8.30;;;;;;;16.59;100.00;100440.67;105950;1257;71868;-86
2023/06/16 00:25:18;;;;;;;9.40;7.40;;;;;;;16.59;100.00;100438.37;106088;1255;61422;-84
2023/06/16 00:27:45;;;;;;;13.40;7.80;;;;;;;16.58;100.00;100436.34;106023;1251;60424;-84
2023/06/16 00:30:12;;;;;;;15.70;9.20;;;;;;;16.57;100.00;100431.08;106086;1251;72596;-85
2023/06/16 00:32:40;;;;;;;13.00;8.00;;;;;;;16.56;100.00;100431.77;106145;1257;63871;-85
2023/06/16 00:35:07;;;;;;;9.20;7.50;;;;;;;16.53;100.00;100434.69;106143;1254;72613;-87
2023/06/16 00:37:36;;;;;;;17.40;8.90;;;;;;;16.50;100.00;100432.27;105976;1251;61643;-84
2023/06/16 00:40:05;;;;;;;11.90;7.80;;;;;;;16.47;100.00;100431.14;106071;1251;60415;-85
2023/06/16 00:42:32;;;;;;;9.50;8.00;;;;;;;16.43;100.00;100428.98;106025;1250;73662;-84
2023/06/16 00:44:59;;;;;;;12.70;7.60;;;;;;;16.41;100.00;100430.45;105992;1252;62755;-86
2023/06/16 00:47:26;;;;;;;14.70;7.00;;;;;;;16.38;100.00;100427.82;106125;1252;72680;-87
2023/06/16 00:49:53;;;;;;;12.40;8.00;;;;;;;16.36;100.00;100425.91;106392;1256;60821;-83
2023/06/16 00:52:21;;;;;;;13.90;7.80;;;;;;;16.33;100.00;100426.45;109309;1251;58862;-83
2023/06/16 00:54:50;;;;;;;9.00;8.00;;;;;;;16.32;100.00;100433.85;107978;1256;72541;-83
2023/06/16 00:57:17;;;;;;;11.00;7.40;;;;;;;16.29;100.00;100438.29;107448;1251;63878;-84
2023/06/16 00:59:44;;;;;;;9.70;7.70;;;;;;;16.27;100.00;100434.43;107413;1253;72496;-83
2023/06/16 01:02:13;;;;;;;12.50;7.40;;;;;;;16.25;100.00;100438.84;106510;1254;61870;-83
2023/06/16 01:04:40;;;;;;;22.20;8.50;;;;;;;16.23;100.00;100438.11;106248;1250;60469;-82
2023/06/16 01:07:28;;;;;;;8.00;6.40;;;;;;;16.22;100.00;100439.95;106074;1257;73796;-82
2023/06/16 01:10:12;;;;;;;9.80;6.70;;;;;;;16.20;100.00;100444.58;106184;1252;62476;-87
2023/06/16 01:12:58;;;;;;;9.10;7.40;;;;;;;16.18;100.00;100444.23;106094;1251;72474;-85
2023/06/16 01:15:25;;;;;;;11.40;7.50;;;;;;;16.17;100.00;100442.89;106050;1253;61781;-87
2023/06/16 01:17:54;;;;;;;10.70;7.20;;;;;;;16.16;100.00;100440.30;106336;1251;60378;-87
2023/06/16 01:20:33;;;;;;;10.30;7.90;;;;;;;16.16;100.00;100440.83;106229;1251;73798;-81
2023/06/16 01:23:40;;;;;;;10.50;7.50;;;;;;;16.14;100.00;100436.75;108709;1251;63941;-82
2023/06/16 01:26:07;;;;;;;12.10;8.10;;;;;;;16.13;100.00;100436.83;109524;1251;71320;-81
2023/06/16 01:28:34;;;;;;;13.80;7.40;;;;;;;16.12;100.00;100437.30;109499;1249;60787;-81
2023/06/16 01:31:01;;;;;;;8.20;6.70;;;;;;;16.10;100.00;100440.64;109699;1249;59188;-82
2023/06/16 01:33:29;;;;;;;10.50;7.40;;;;;;;16.09;100.00;100438.25;109724;1250;72370;-81
2023/06/16 01:35:56;;;;;;;8.90;6.60;;;;;;;16.07;100.00;100433.85;109594;1251;61351;-80
2023/06/16 01:38:25;;;;;;;15.10;7.10;;;;;;;16.08;100.00;100432.21;109745;1251;71282;-82
2023/06/16 01:40:51;;;;;;;14.20;6.80;;;;;;;16.07;100.00;100435.13;109887;1251;60699;-84
2023/06/16 01:43:19;;;;;;;7.80;6.70;;;;;;;16.06;100.00;100431.48;109919;1250;59149;-83
2023/06/16 01:45:46;;;;;;;11.30;7.40;;;;;;;16.06;100.00;100431.88;109806;1249;72659;-83
2023/06/16 01:48:15;;;;;;;25.30;7.60;;;;;;;16.06;100.00;100438.05;109849;1250;62685;-84
2023/06/16 01:50:42;;;;;;;9.90;6.60;;;;;;;16.05;100.00;100439.50;109934;1250;71342;-83
2023/06/16 01:53:09;;;;;;;11.70;7.20;;;;;;;16.04;100.00;100441.91;107311;1250;60479;-83
2023/06/16 01:55:37;;;;;;;9.70;7.00;;;;;;;16.02;100.00;100444.55;106697;1251;60426;-84
2023/06/16 01:58:06;;;;;;;10.90;7.10;;;;;;;16.01;100.00;100441.83;106581;1251;73550;-84
2023/06/16 02:00:35;;;;;;;12.90;6.90;;;;;;;15.99;100.00;100437.72;106619;1251;63109;-82
2023/06/16 02:03:13;;;;;;;11.60;7.30;;;;;;;15.98;100.00;100438.70;106681;1253;72439;-84
2023/06/16 02:05:42;;;;;;;12.80;7.00;;;;;;;15.96;100.00;100440.11;106583;1250;60810;-83
2023/06/16 02:08:12;;;;;;;8.40;6.50;;;;;;;15.95;100.00;100431.20;106445;1256;60409;-83
2023/06/16 02:10:39;;;;;;;11.70;6.50;;;;;;;15.95;100.00;100434.54;106350;1257;73879;-83
2023/06/16 02:13:08;;;;;;;11.70;6.40;;;;;;;15.94;100.00;100433.38;106461;1254;63693;-84
2023/06/16 02:15:35;;;;;;;8.70;7.10;;;;;;;15.93;100.00;100433.64;106384;1251;71688;-84
2023/06/16 02:18:03;;;;;;;10.50;6.10;;;;;;;15.91;100.00;100437.88;106263;1256;60974;-84
2023/06/16 02:20:33;;;;;;;12.80;6.70;;;;;;;15.89;100.00;100443.16;106032;1253;60374;-85
2023/06/16 02:23:00;;;;;;;11.60;6.60;;;;;;;15.87;100.00;100444.72;106112;1253;73833;-86
2023/06/16 02:25:27;;;;;;;12.30;7.00;;;;;;;15.88;100.00;100449.08;106111;1251;63844;-87
2023/06/16 02:27:53;;;;;;;7.60;6.60;;;;;;;15.87;100.00;100452.65;106067;1251;72642;-86
2023/06/16 02:30:21;;;;;;;14.40;7.00;;;;;;;15.87;100.00;100453.51;105974;1251;60775;-85
2023/06/16 02:32:49;;;;;;;16.10;7.10;;;;;;;15.88;100.00;100452.27;105845;1257;60421;-87
2023/06/16 02:35:29;;;;;;;12.40;7.00;;;;;;;15.89;100.00;100455.36;105932;1254;73845;-85
2023/06/16 02:37:57;;;;;;;8.60;6.60;;;;;;;15.89;100.00;100457.42;106039;1251;63994;-89
2023/06/16 02:40:23;;;;;;;15.00;7.30;;;;;;;15.89;100.00;100462.38;105980;1251;72692;-87
2023/06/16 02:42:52;;;;;;;14.90;8.80;;;;;;;15.89;100.00;100456.95;106060;1251;61682;-84
2023/06/16 02:45:19;;;;;;;13.00;7.10;;;;;;;15.88;100.00;100458.53;106098;1255;60523;-84
2023/06/16 02:47:47;;;;;;;12.20;7.60;;;;;;;15.90;100.00;100456.30;108084;1251;72585;-83
2023/06/16 02:50:15;;;;;;;10.50;7.30;;;;;;;15.91;100.00;100455.31;108004;1251;64017;-84
2023/06/16 02:52:42;;;;;;;14.60;7.40;;;;;;;15.94;100.00;100458.61;106611;1251;71449;-85
2023/06/16 02:55:13;;;;;;;8.80;7.20;;;;;;;15.97;100.00;100457.48;106718;1250;61949;-83
2023/06/16 02:57:43;;;;;;;11.90;7.60;;;;;;;16.00;100.00;100460.75;106283;1254;60477;-85
2023/06/16 03:00:11;;;;;;;11.90;7.70;;;;;;;16.04;100.00;100459.39;106971;1257;73976;-84
2023/06/16 03:02:58;;;;;;;10.80;7.70;;;;;;;16.08;100.00;100460.61;106285;1252;64518;-84
2023/06/16 03:05:27;;;;;;;13.80;8.70;;;;;;;16.11;100.00;100461.75;106070;1251;71705;-85
2023/06/16 03:07:54;;;;;;;13.00;8.30;;;;;;;16.15;100.00;100462.80;106083;1254;60893;-86
2023/06/16 03:10:23;;;;;;;10.90;8.10;;;;;;;16.20;100.00;100467.02;106051;1251;60446;-84
2023/06/16 03:13:01;;;;;;;9.90;6.80;;;;;;;16.23;100.00;100465.12;106248;1251;72465;-84
2023/06/16 03:15:30;;;;;;;9.50;6.90;;;;;;;16.28;100.00;100464.91;106300;1256;64334;-88
2023/06/16 03:17:57;;;;;;;10.50;7.30;;;;;;;16.32;100.00;100463.48;106077;1254;72660;-90
2023/06/16 03:20:27;;;;;;;11.40;7.60;;;;;;;16.37;100.00;100461.84;106165;1251;62218;-87
2023/06/16 03:22:58;;;;;;;9.60;6.50;;;;;;;16.43;100.00;100460.11;106087;1253;60958;-88
2023/06/16 03:25:26;;;;;;;12.60;6.60;;;;;;;16.48;100.00;100452.86;105979;1255;73839;-84
2023/06/16 03:27:54;;;;;;;12.00;7.50;;;;;;;16.55;100.00;100455.83;106167;1253;63789;-87
2023/06/16 03:30:22;;;;;;;10.90;7.30;;;;;;;16.62;100.00;100452.61;106127;1253;71476;-86
2023/06/16 03:32:56;;;;;;;;;;;;;;;16.68;100.00;100452.40;106058;1253;61694;-86
2023/06/16 03:35:23;;;;;;;12.50;6.90;;;;;;;16.75;100.00;100451.74;106090;1251;60563;-86
2023/06/16 03:37:51;;;;;;;13.80;7.70;;;;;;;16.81;100.00;100453.88;106072;1251;73712;-85
2023/06/16 03:40:19;;;;;;;9.70;7.30;;;;;;;16.87;100.00;100450.52;106018;1251;62436;-88
2023/06/16 03:42:46;;;;;;;16.30;7.20;;;;;;;16.94;100.00;100452.02;106058;1251;71793;-84
2023/06/16 03:45:13;;;;;;;11.60;7.40;;;;;;;17.02;100.00;100448.02;106051;1254;62016;-85
2023/06/16 03:47:41;;;;;;;9.20;7.00;;;;;;;17.09;100.00;100449.10;106134;1253;60437;-87
2023/06/16 03:50:09;;;;;;;13.10;7.70;;;;;;;17.17;100.00;100449.06;106868;1256;75184;-84
2023/06/16 03:52:37;;;;;;;17.90;7.90;;;;;;;17.26;100.00;100449.02;108240;1254;63734;-83
2023/06/16 03:55:05;;;;;;;24.60;7.30;;;;;;;17.33;100.00;100444.61;107545;1251;72541;-84
2023/06/16 03:57:32;;;;;;;8.10;6.80;;;;;;;17.42;100.00;100442.56;107027;1257;61603;-84
2023/06/16 03:59:59;;;;;;;10.70;7.20;;;;;;;17.52;100.00;100441.30;106518;1254;60620;-87
2023/06/16 04:02:26;;;;;;;7.80;6.60;;;;;;;17.61;100.00;100440.08;106003;1255;73604;-86
2023/06/16 04:04:55;;;;;;;8.90;6.60;;;;;;;17.71;100.00;100439.96;106206;1251;62564;-85
2023/06/16 04:07:23;;;;;;;9.00;6.70;;;;;;;17.82;100.00;100437.19;105986;1251;72282;-84
2023/06/16 04:09:51;;;;;;;14.90;6.70;;;;;;;17.93;100.00;100438.09;106136;1254;60788;-84
2023/06/16 04:12:18;;;;;;;13.70;6.60;;;;;;;18.07;100.00;100440.98;105944;1250;60701;-85
2023/06/16 04:14:45;;;;;;;11.60;6.40;;;;;;;18.28;100.00;100442.23;106117;1254;73685;-84
2023/06/16 04:17:12;;;;;;;11.60;6.10;;;;;;;18.59;100.00;100434.79;106110;1250;64062;-84
2023/06/16 04:19:41;;;;;;;8.60;6.00;;;;;;;19.02;100.00;100433.48;106070;1251;71348;-87
2023/06/16 04:22:08;;;;;;;9.10;5.70;;;;;;;19.54;100.00;100436.98;105979;1250;60835;-85
2023/06/16 04:24:45;;;;;;;9.90;5.20;;;;;;;20.12;100.00;100439.77;105970;1250;60575;-86
2023/06/16 04:27:11;;;;;;;10.80;5.70;;;;;;;20.68;100.00;100439.98;106021;1251;71667;-83
2023/06/16 04:29:42;;;;;;;9.20;5.30;;;;;;;21.25;100.00;100438.18;106180;1253;63824;-86
2023/06/16 04:32:13;;;;;;;9.80;5.30;;;;;;;21.81;100.00;100438.92;106187;1257;72518;-85
2023/06/16 04:34:42;;;;;;;6.00;4.50;;;;;;;22.35;100.00;100443.59;106075;1253;62048;-86
2023/06/16 04:37:12;;;;;;;18.00;5.70;;;;;;;22.83;100.00;100443.67;106075;1251;60988;-85
2023/06/16 04:39:40;;;;;;;7.00;4.80;;;;;;;23.29;100.00;100443.03;106071;1251;72745;-86
2023/06/16 04:42:09;;;;;;;8.10;4.80;;;;;;;23.70;100.00;100448.39;106349;1251;63769;-83
2023/06/16 04:44:37;;;;;;;8.80;5.20;;;;;;;24.05;100.00;100449.31;105880;1257;72547;-86
2023/06/16 04:47:04;;;;;;;6.40;5.00;;;;;;;24.39;100.00;100447.74;106056;1257;61920;-85
2023/06/16 04:49:31;;;;;;;8.80;5.00;;;;;;;24.74;100.00;100447.52;106215;1257;60405;-82
2023/06/16 04:51:58;;;;;;;7.50;4.40;;;;;;;25.08;100.00;100443.67;107256;1249;73911;-84
2023/06/16 04:54:25;;;;;;;8.70;5.30;;;;;;;25.39;100.00;100439.45;106011;1256;63747;-87
2023/06/16 04:56:52;;;;;;;6.50;4.50;;;;;;;25.67;100.00;100437.06;105909;1251;72645;-85
2023/06/16 04:59:20;;;;;;;5.80;4.70;;;;;;;25.91;100.00;100439.80;106002;1251;60457;-88
2023/06/16 05:01:50;;;;;;;6.00;4.70;;;;;;;26.13;100.00;100434.91;106075;1254;60514;-88
2023/06/16 05:04:18;;;;;;;8.00;4.70;;;;;;;26.36;100.00;100433.88;106382;1253;73661;-87
2023/06/16 05:06:46;;;;;;;7.90;4.70;;;;;;;26.59;99.67;100428.66;106603;1254;65363;-85
2023/06/16 05:09:15;;;;;;;5.40;4.20;;;;;;;26.90;97.78;100430.61;106901;1254;71626;-87
2023/06/16 05:11:47;;;;;;;7.30;4.40;;;;;;;27.17;95.85;100426.03;106504;1251;60573;-82
2023/06/16 05:14:15;;;;;;;8.80;4.80;;;;;;;27.42;93.93;100429.87;106834;1253;60601;-84
2023/06/16 05:16:43;;;;;;;6.40;4.50;;;;;;;27.66;91.92;100435.77;106977;1256;73837;-90
2023/06/16 05:19:10;;;;;;;13.10;5.70;;;;;;;27.90;90.17;100439.38;106038;1251;63746;-86
2023/06/16 05:21:43;;;;;;;;;;;;;;;28.11;88.95;100436.26;106043;1251;74381;-87
2023/06/16 05:24:10;;;;;;;7.50;4.70;;;;;;;28.29;87.73;100436.45;106436;1256;60533;-84
2023/06/16 05:26:38;;;;;;;8.20;5.00;;;;;;;28.48;87.63;100432.08;106682;1251;60443;-88
2023/06/16 05:29:05;;;;;;;8.20;4.60;;;;;;;28.68;86.11;100433.69;106162;1253;73724;-83
2023/06/16 05:31:34;;;;;;;8.50;5.00;;;;;;;28.91;84.21;100437.30;106056;1251;62826;-86
2023/06/16 05:34:01;;;;;;;9.30;4.60;;;;;;;29.15;82.99;100433.52;106205;1251;72639;-86
2023/06/16 05:36:30;;;;;;;11.40;5.10;;;;;;;29.39;80.26;100430.91;106169;1253;60383;-85
2023/06/16 05:38:57;;;;;;;6.60;5.10;;;;;;;29.61;78.55;100429.05;106046;1251;60601;-88
2023/06/16 05:41:26;;;;;;;7.20;4.10;;;;;;;29.81;78.27;100429.60;106222;1253;73876;-85
2023/06/16 05:43:54;;;;;;;6.70;4.30;;;;;;;30.00;77.61;100428.14;106813;1256;62728;-86
2023/06/16 05:46:22;;;;;;;4.90;4.00;;;;;;;30.15;77.05;100423.84;106709;1250;71493;-85
2023/06/16 05:48:49;;;;;;;7.50;5.40;;;;;;;30.32;75.89;100419.59;108517;1249;60360;-83
2023/06/16 05:51:16;;;;;;;8.50;3.80;;;;;;;30.48;75.00;100415.86;109651;1249;59207;-84
2023/06/16 05:53:43;;;;;;;7.60;3.60;;;;;;;30.63;74.71;100414.48;108426;1251;74036;-85
2023/06/16 05:56:10;;;;;;;8.80;4.10;;;;;;;30.84;73.17;100420.20;106296;1254;64599;-85
2023/06/16 05:58:37;;;;;;;13.90;4.30;;;;;;;31.06;71.55;100419.63;105961;1249;72525;-86
2023/06/16 06:01:06;;;;;;;5.50;3.80;;;;;;;31.23;68.43;100418.61;106027;1253;60530;-86
2023/06/16 06:03:33;;;;;;;6.30;3.70;;;;;;;31.39;66.46;100419.53;106159;1250;60369;-86
2023/06/16 06:06:01;;;;;;;5.20;3.60;;;;;;;31.52;65.01;100414.86;106088;1253;73825;-87
2023/06/16 06:08:29;;;;;;;6.60;3.60;;;;;;;31.69;61.99;100415.85;106146;1254;63661;-84
2023/06/16 06:10:59;;;;;;;5.70;3.30;;;;;;;31.86;60.30;100416.77;106243;1253;70788;-85
2023/06/16 06:13:27;;;;;;;7.60;3.40;;;;;;;32.00;60.56;100410.33;106083;1251;60606;-85
2023/06/16 06:15:54;;;;;;;6.40;3.20;;;;;;;32.20;59.63;100409.59;106259;1250;60447;-87
2023/06/16 06:18:21;;;;;;;5.90;2.90;;;;;;;32.32;55.27;100406.51;106036;1252;74237;-87
2023/06/16 06:20:49;;;;;;;5.90;3.40;;;;;;;32.28;51.52;100406.53;106134;1254;63901;-84
2023/06/16 06:23:16;;;;;;;8.10;3.20;;;;;;;32.21;50.24;100403.85;106077;1251;72615;-84
2023/06/16 06:25:43;;;;;;;8.70;3.40;;;;;;;32.14;48.20;100408.16;106017;1251;60541;-85
2023/06/16 06:28:11;;;;;;;6.80;3.60;;;;;;;32.07;47.87;100404.44;106087;1253;61496;-85
2023/06/16 06:30:40;;;;;;;7.20;3.40;;;;;;;31.97;47.37;100400.05;106044;1253;73416;-85
2023/06/16 06:33:08;;;;;;;5.60;2.90;;;;;;;31.90;47.16;100399.05;106167;1251;63317;-87
2023/06/16 06:35:35;;;;;;;4.40;3.10;;;;;;;31.93;48.34;100398.15;106184;1250;71484;-84
2023/06/16 06:38:06;;;;;;;5.20;3.40;;;;;;;32.03;48.48;100395.63;106143;1257;60415;-86
2023/06/16 06:40:35;;;;;;;5.60;3.20;;;;;;;32.00;48.36;100392.70;105990;1251;60547;-85
2023/06/16 06:43:02;;;;;;;7.40;3.20;;;;;;;32.02;49.38;100393.59;106188;1251;73776;-85
2023/06/16 06:45:37;;;;;;;9.30;3.20;;;;;;;32.04;48.34;100395.81;107336;1250;64830;-83
2023/06/16 06:48:04;;;;;;;9.30;3.80;;;;;;;32.16;48.23;100396.15;108462;1251;71153;-83
2023/06/16 06:50:33;;;;;;;5.10;3.30;;;;;;;32.37;49.79;100387.13;108158;1251;60593;-83
2023/06/16 06:53:00;;;;;;;5.40;3.80;;;;;;;32.66;49.69;100387.64;106763;1254;60256;-84
2023/06/16 06:55:27;;;;;;;6.20;3.30;;;;;;;32.84;48.69;100383.93;106665;1251;72216;-85
2023/06/16 06:57:57;;;;;;;7.40;2.70;;;;;;;32.96;45.33;100385.02;106301;1251;62546;-86
2023/06/16 07:00:24;;;;;;;6.60;3.50;;;;;;;33.19;43.77;100379.10;106308;1249;71505;-85
2023/06/16 07:02:52;;;;;;;5.20;2.80;;;;;;;33.35;42.15;100376.84;106231;1253;60450;-85
2023/06/16 07:05:19;;;;;;;4.90;2.30;;;;;;;33.45;43.58;100379.49;106148;1249;60529;-83
2023/06/16 07:07:46;;;;;;;4.20;2.50;;;;;;;33.53;42.41;100378.67;106138;1253;72852;-85
2023/06/16 07:10:13;;;;;;;3.30;2.50;;;;;;;33.51;39.91;100379.09;106155;1250;63931;-84
2023/06/16 07:12:40;;;;;;;4.30;3.10;;;;;;;33.44;41.22;100378.13;106279;1257;71450;-84
2023/06/16 07:15:08;;;;;;;6.30;2.80;;;;;;;33.47;41.90;100380.38;106043;1250;60660;-86
2023/06/16 07:17:35;;;;;;;8.00;3.50;;;;;;;33.53;42.86;100381.45;106139;1251;60424;-84
2023/06/16 07:20:03;;;;;;;8.60;3.30;;;;;;;33.58;42.22;100378.92;106265;1250;72911;-87
2023/06/16 07:22:31;;;;;;;4.00;2.70;;;;;;;33.64;40.76;100379.90;106123;1253;62661;-83
2023/06/16 07:24:59;;;;;;;5.60;2.50;;;;;;;33.67;39.55;100378.25;106186;1251;72711;-82
2023/06/16 07:27:26;;;;;;;9.00;2.80;;;;;;;33.79;41.46;100380.42;105764;1253;908614;-84
2023/06/16 07:31:35;;;;;;;5.70;1.90;;;;;;;34.24;41.63;100379.15;102795;1295;613527;-85
2023/06/16 07:34:03;;;;;;;6.80;2.70;;;;;;;34.47;39.48;100376.94;105063;1264;60380;-89
2023/06/16 07:36:31;;;;;;;3.90;2.50;;;;;;;34.55;38.27;100376.58;105265;1269;59340;-85
2023/06/16 07:38:58;;;;;;;5.60;2.90;;;;;;;34.58;37.79;100372.74;105420;1261;72034;-86
2023/06/16 07:41:26;;;;;;;3.80;2.20;;;;;;;34.48;37.36;100373.69;105462;1260;62520;-83
2023/06/16 07:43:53;;;;;;;5.50;2.30;;;;;;;34.49;38.51;100374.13;104681;1260;933084;-89
2023/06/16 07:46:20;;;;;;;5.00;2.50;;;;;;;34.57;39.01;100373.49;105447;1259;60301;-86
2023/06/16 07:48:47;;;;;;;6.30;1.90;;;;;;;34.72;39.11;100373.06;105385;1261;60320;-87
2023/06/16 07:51:15;;;;;;;3.10;2.20;;;;;;;34.85;38.18;100373.56;105625;1260;72236;-89
2023/06/16 07:53:42;;;;;;;5.20;2.60;;;;;;;34.93;37.15;100373.14;105535;1260;63516;-87
2023/06/16 07:56:09;;;;;;;5.80;2.50;;;;;;;34.83;36.88;100370.66;105448;1261;72596;-85
2023/06/16 07:58:38;;;;;;;4.70;2.20;;;;;;;34.76;36.72;100373.92;105615;1263;60483;-85
2023/06/16 08:01:05;;;;;;;2.90;2.30;;;;;;;34.49;36.47;100374.30;105857;1260;59621;-89
2023/06/16 08:03:32;;;;;;;3.50;2.20;;;;;;;34.45;37.21;100371.70;105888;1258;73070;-86
2023/06/16 08:05:59;;;;;;;6.20;2.20;;;;;;;34.30;37.29;100371.27;105832;1260;63773;-85
2023/06/16 08:08:27;;;;;;;4.00;3.10;;;;;;;34.30;37.83;100369.30;105708;1257;72640;-83
2023/06/16 08:10:58;;;;;;;6.10;2.30;;;;;;;34.38;39.18;100369.60;105824;1259;60277;-85
2023/06/16 08:13:25;;;;;;;5.10;2.20;;;;;;;34.63;38.30;100371.61;105804;1257;60329;-87
2023/06/16 08:15:52;;;;;;;4.00;2.00;;;;;;;34.91;36.77;100368.22;106604;1256;72928;-83
2023/06/16 08:18:19;;;;;;;4.40;2.90;;;;;;;35.06;35.83;100369.32;106498;1257;62980;-82
2023/06/16 08:20:46;;;;;;;2.80;1.80;;;;;;;35.14;35.35;100369.13;106052;1257;72463;-85
2023/06/16 08:23:13;;;;;;;6.30;2.10;;;;;;;35.26;35.41;100367.19;106117;1260;60259;-86
2023/06/16 08:25:40;;;;;;;4.60;2.00;;;;;;;35.33;35.47;100364.58;105896;1257;60102;-85
2023/06/16 08:28:07;;;;;;;4.80;2.10;;;;;;;35.36;35.26;100359.30;105821;1254;72770;-87
2023/06/16 08:30:35;;;;;;;5.90;2.00;;;;;;;35.39;34.15;100359.55;105864;1253;63967;-86
2023/06/16 08:33:17;;;;;;;6.00;2.40;;;;;;;35.36;34.14;100360.23;105883;1257;72705;-84
2023/06/16 08:35:45;;;;;;;5.30;2.50;;;;;;;35.52;35.45;100360.16;107340;1254;60264;-83
2023/06/16 08:38:11;;;;;;;7.10;2.50;;;;;;;35.66;35.31;100357.53;106243;1254;59624;-86
2023/06/16 08:40:38;;;;;;;4.90;2.50;;;;;;;35.75;34.76;100361.39;105872;1257;71689;-86
2023/06/16 08:43:05;;;;;;;5.00;2.30;;;;;;;35.67;33.57;100361.73;105787;1258;63807;-87
2023/06/16 08:45:33;;;;;;;5.10;1.80;;;;;;;35.59;33.59;100359.93;105909;1254;63960;-90
2023/06/16 08:48:00;;;;;;;5.80;2.20;;;;;;;35.52;33.27;100359.28;105948;1254;59778;-85
2023/06/16 08:50:28;;;;;;;5.60;2.10;;;;;;;35.49;33.24;100357.80;106116;1254;59637;-85
2023/06/16 08:52:57;;;;;;;5.10;2.90;;;;;;;35.40;33.39;100358.02;106050;1254;72999;-83
2023/06/16 08:55:25;;;;;;;8.00;2.40;;;;;;;35.34;33.54;100350.23;106220;1251;61667;-86
2023/06/16 08:57:56;;;;;;;5.20;2.30;;;;;;;35.33;33.89;100348.80;106737;1253;72263;-84
2023/06/16 09:00:27;;;;;;;7.90;2.40;;;;;;;35.30;33.59;100345.70;106065;1251;59662;-86
2023/06/16 09:02:56;;;;;;;4.60;2.30;;;;;;;35.16;33.02;100342.92;106059;1256;59624;-88
2023/06/16 09:05:26;;;;;;;4.20;2.30;;;;;;;35.10;34.15;100340.45;106239;1251;73278;-87
2023/06/16 09:07:55;;;;;;;3.90;2.10;;;;;;;35.17;34.81;100336.55;106072;1253;63878;-86
2023/06/16 09:10:23;;;;;;;4.20;3.40;;;;;;;35.31;34.31;100338.77;106108;1250;71474;-88
2023/06/16 09:12:52;;;;;;;2.90;1.80;;;;;;;35.39;33.25;100336.96;106167;1253;60446;-85
2023/06/16 09:15:21;;;;;;;5.00;2.30;;;;;;;35.42;33.31;100335.98;106238;1250;60045;-88
2023/06/16 09:17:51;;;;;;;5.10;2.40;;;;;;;35.44;34.24;100331.42;106048;1256;72203;-86
2023/06/16 09:20:26;;;;;;;6.00;2.30;;;;;;;35.51;33.46;100330.81;106452;1250;63746;-85
2023/06/16 09:22:59;;;;;;;5.60;2.10;;;;;;;35.54;32.32;100331.25;106215;1249;72707;-88
2023/06/16 09:25:31;;;;;;;7.10;2.20;;;;;;;35.46;33.13;100331.75;106193;1255;60423;-84
2023/06/16 09:28:01;;;;;;;4.70;2.00;;;;;;;35.43;33.40;100331.48;106268;1251;60766;-84
2023/06/16 09:30:30;;;;;;;6.30;2.50;;;;;;;35.34;33.33;100334.25;106337;1251;71620;-85
2023/06/16 09:32:57;;;;;;;22.70;20.90;;;;;;;35.27;33.47;100332.30;106102;1251;63964;-88
2023/06/16 09:35:26;;;;;;;7.50;6.10;;;;;;;35.27;33.86;100328.38;106095;1251;71885;-87
2023/06/16 09:37:55;;;;;;;5.60;3.60;;;;;;;35.36;34.05;100330.66;106150;1251;59726;-84
2023/06/16 09:40:30;;;;;;;6.40;2.70;;;;;;;35.47;33.53;100328.55;108962;1250;59538;-84
2023/06/16 09:42:58;;;;;;;6.40;1.90;;;;;;;35.60;33.26;100330.27;109738;1250;71739;-83
2023/06/16 09:45:32;;;;;;;4.40;2.10;;;;;;;35.73;32.88;100330.33;108239;1251;64029;-85
2023/06/16 09:48:06;;;;;;;6.80;2.70;;;;;;;35.85;33.15;100333.44;107847;1249;72518;-86
2023/06/16 09:50:33;;;;;;;4.20;2.40;;;;;;;35.86;32.97;100332.79;106320;1251;59744;-88
2023/06/16 09:53:03;;;;;;;6.10;3.10;;;;;;;35.93;32.59;100331.45;106202;1251;60307;-85
2023/06/16 09:55:33;;;;;;;3.50;2.40;;;;;;;35.96;32.27;100325.45;106977;1250;71836;-84
2023/06/16 09:58:00;;;;;;;16.60;15.00;;;;;;;36.03;32.89;100322.03;107173;1253;59608;-85
2023/06/16 10:00:28;;;;;;;7.30;3.80;;;;;;;36.18;33.21;100319.52;106884;1253;63835;-86
2023/06/16 10:02:57;;;;;;;5.70;4.70;;;;;;;36.30;33.04;100314.35;106670;1253;59710;-88
2023/06/16 10:05:24;;;;;;;11.50;7.70;;;;;;;36.39;32.02;100313.66;106227;1257;59521;-86
2023/06/16 10:07:59;;;;;;;10.40;6.30;;;;;;;36.46;31.68;100316.07;106138;1251;64428;-87
2023/06/16 10:10:28;;;;;;;24.20;22.00;;;;;;;36.49;31.93;100315.86;106233;1253;59666;-84
2023/06/16 10:12:56;;;;;;;10.50;9.60;;;;;;;36.48;32.23;100320.71;108013;1250;64872;-83
2023/06/16 10:15:26;;;;;;;8.60;4.50;;;;;;;36.37;31.57;100317.38;108437;1249;59563;-85
2023/06/16 10:17:55;;;;;;;4.50;3.30;;;;;;;36.34;31.43;100320.16;109095;1250;59461;-84
2023/06/16 10:20:32;;;;;;;6.40;3.10;;;;;;;36.39;31.53;100316.13;109792;1251;62924;-82
2023/06/16 10:23:00;;;;;;;4.10;2.00;;;;;;;36.49;31.91;100314.88;109212;1251;59676;-83
2023/06/16 10:25:28;;;;;;;3.90;2.80;;;;;;;36.62;31.99;100310.63;106087;1259;62849;-85
2023/06/16 10:27:56;;;;;;;5.00;3.80;;;;;;;36.61;32.07;100306.14;106655;1255;59650;-84
2023/06/16 10:30:23;;;;;;;7.00;3.60;;;;;;;36.33;31.49;100306.82;106766;1251;59800;-85
2023/06/16 10:32:55;;;;;;;4.10;2.80;;;;;;;36.15;31.77;100304.38;106056;1251;71853;-87
2023/06/16 10:35:22;;;;;;;9.20;3.60;;;;;;;35.89;31.62;100300.63;106171;1251;59727;-87
2023/06/16 10:37:51;;;;;;;5.80;2.80;;;;;;;35.70;31.58;100298.67;106231;1256;72631;-86
2023/06/16 10:40:20;;;;;;;5.60;2.60;;;;;;;35.68;32.21;100292.11;106244;1254;59736;-87
2023/06/16 10:42:48;;;;;;;3.80;2.50;;;;;;;35.80;32.83;100287.63;106159;1251;59622;-88
2023/06/16 10:45:23;;;;;;;11.20;3.60;;;;;;;35.97;33.17;100291.49;105977;1256;73226;-85
2023/06/16 10:48:01;;;;;;;8.30;4.30;;;;;;;36.01;33.42;100285.71;106409;1251;59618;-85
2023/06/16 10:50:37;;;;;;;8.90;2.60;;;;;;;35.82;33.18;100288.13;106187;1251;62873;-87
2023/06/16 10:53:23;;;;;;;7.80;4.80;;;;;;;35.60;32.84;100290.54;106163;1251;59628;-85
2023/06/16 10:56:10;;;;;;;6.10;3.00;;;;;;;35.47;33.06;100287.46;106166;1256;59634;-88
2023/06/16 10:58:37;;;;;;;7.30;2.70;;;;;;;35.30;32.63;100285.59;106267;1251;71651;-88
2023/06/16 11:01:21;;;;;;;8.00;3.40;;;;;;;35.18;31.53;100281.05;106150;1255;63969;-87
2023/06/16 11:03:57;;;;;;;5.20;2.40;;;;;;;35.13;32.79;100280.53;106272;1256;72567;-85
2023/06/16 11:06:26;;;;;;;5.40;2.80;;;;;;;35.04;32.81;100274.23;106380;1251;59574;-85
2023/06/16 11:08:57;;;;;;;5.00;2.30;;;;;;;35.00;32.97;100274.92;106229;1255;59653;-87
2023/06/16 11:11:33;;;;;;;5.80;2.90;;;;;;;34.97;32.78;100270.48;106305;1254;72277;-86
2023/06/16 11:14:01;;;;;;;3.60;2.20;;;;;;;34.99;32.37;100267.92;106138;1251;62627;-85
2023/06/16 11:16:28;;;;;;;6.10;2.90;;;;;;;34.99;32.68;100270.83;106281;1257;72590;-86
2023/06/16 11:18:57;;;;;;;5.40;2.00;;;;;;;34.93;32.47;100266.80;106300;1256;60334;-84
2023/06/16 11:21:30;;;;;;;5.60;3.30;;;;;;;34.85;32.40;100270.63;106204;1256;60366;-83